createdAt,value
2022-07-29T00:00:02.130Z,4.07
2022-07-29T00:02:33.034Z,3.97
2022-07-29T00:05:00.011Z,4.60
2022-07-29T00:07:27.097Z,4.07
2022-07-29T00:09:53.879Z,4.15
2022-07-29T00:12:26.407Z,3.78
2022-07-29T00:14:57.560Z,4.45
2022-07-29T00:17:25.270Z,3.92
2022-07-29T00:19:52.171Z,4.57
2022-07-29T00:22:21.259Z,4.40
2022-07-29T00:24:51.101Z,4.57
2022-07-29T00:27:18.635Z,4.63
2022-07-29T00:29:45.704Z,4.38
2022-07-29T00:32:12.564Z,4.72
2022-07-29T00:34:58.065Z,4.28
2022-07-29T00:37:25.372Z,4.32
2022-07-29T00:39:52.394Z,3.80
2022-07-29T00:42:19.241Z,3.70
2022-07-29T00:44:46.221Z,4.45
2022-07-29T00:47:13.613Z,4.13
2022-07-29T00:49:42.089Z,4.20
2022-07-29T00:52:10.475Z,4.30
2022-07-29T00:54:44.119Z,5.03
2022-07-29T00:57:12.505Z,4.18
2022-07-29T00:59:39.296Z,3.97
2022-07-29T01:02:06.384Z,4.55
2022-07-29T01:04:33.959Z,4.07
2022-07-29T01:07:02.982Z,4.65
2022-07-29T01:09:42.121Z,4.45
2022-07-29T01:12:19.946Z,4.40
2022-07-29T01:14:48.044Z,4.60
2022-07-29T01:17:17.561Z,4.45
2022-07-29T01:20:38.169Z,4.93
2022-07-29T01:23:08.134Z,4.30
2022-07-29T01:25:56.163Z,4.88
2022-07-29T01:29:04.022Z,5.10
2022-07-29T01:31:58.493Z,4.70
2022-07-29T01:34:49.655Z,4.35
2022-07-29T01:37:41.305Z,4.70
2022-07-29T01:40:20.662Z,4.63
2022-07-29T01:42:53.551Z,4.57
2022-07-29T01:45:34.549Z,5.22
2022-07-29T01:48:05.879Z,4.88
2022-07-29T01:53:07.520Z,5.00
2022-07-29T01:55:37.901Z,4.63
2022-07-29T01:58:06.835Z,4.82
2022-07-29T02:00:35.581Z,4.85
2022-07-29T02:03:07.654Z,4.32
2022-07-29T02:05:36.016Z,5.10
2022-07-29T02:08:04.442Z,4.82
2022-07-29T02:10:33.566Z,4.85
2022-07-29T02:13:02.156Z,4.97
2022-07-29T02:15:32.999Z,5.68
2022-07-29T02:18:05.680Z,5.57
2022-07-29T02:20:33.774Z,4.72
2022-07-29T02:23:02.744Z,5.22
2022-07-29T02:25:37.256Z,5.43
2022-07-29T02:28:06.774Z,4.88
2022-07-29T02:30:37.212Z,5.05
2022-07-29T02:33:05.460Z,4.53
2022-07-29T02:35:34.458Z,5.13
2022-07-29T02:38:22.772Z,5.43
2022-07-29T02:40:51.587Z,5.75
2022-07-29T02:43:19.533Z,4.93
2022-07-29T02:45:48.362Z,5.38
2022-07-29T02:48:22.302Z,4.75
2022-07-29T02:51:02.451Z,5.30
2022-07-29T02:53:34.070Z,5.03
2022-07-29T02:56:07.313Z,5.20
2022-07-29T02:58:39.003Z,5.38
2022-07-29T03:01:15.692Z,5.47
2022-07-29T03:03:47.205Z,4.90
2022-07-29T03:06:31.004Z,5.65
2022-07-29T03:09:05.728Z,5.35
2022-07-29T03:14:20.345Z,4.82
2022-07-29T03:16:48.066Z,5.28
2022-07-29T03:19:15.507Z,4.88
2022-07-29T03:21:42.389Z,4.57
2022-07-29T03:24:10.814Z,4.78
2022-07-29T03:26:38.562Z,5.63
2022-07-29T03:29:05.281Z,4.97
2022-07-29T03:31:33.452Z,4.88
2022-07-29T03:34:00.599Z,5.00
2022-07-29T03:36:27.460Z,4.80
2022-07-29T03:38:55.542Z,4.57
2022-07-29T03:41:24.659Z,5.05
2022-07-29T03:43:54.496Z,4.88
2022-07-29T03:46:24.761Z,5.10
2022-07-29T03:48:55.905Z,4.75
2022-07-29T03:51:33.207Z,5.47
2022-07-29T03:54:09.684Z,5.03
2022-07-29T03:56:43.535Z,5.47
2022-07-29T03:59:11.923Z,5.55
2022-07-29T04:01:40.556Z,5.40
2022-07-29T04:04:08.689Z,5.75
2022-07-29T04:06:43.110Z,5.97
2022-07-29T04:09:10.365Z,5.50
2022-07-29T04:12:01.704Z,5.53
2022-07-29T04:14:26.537Z,5.28
2022-07-29T04:16:54.002Z,4.97
2022-07-29T04:19:20.801Z,5.30
2022-07-29T04:21:50.005Z,5.40
2022-07-29T04:24:17.265Z,5.43
2022-07-29T04:26:44.591Z,5.25
2022-07-29T04:29:12.881Z,4.70
2022-07-29T04:31:39.839Z,4.75
2022-07-29T04:34:07.034Z,5.75
2022-07-29T04:36:33.915Z,5.20
2022-07-29T04:39:01.939Z,5.25
2022-07-29T04:41:32.775Z,5.20
2022-07-29T04:44:05.817Z,5.20
2022-07-29T04:46:34.385Z,4.95
2022-07-29T04:49:01.461Z,5.43
2022-07-29T04:51:28.376Z,5.28
2022-07-29T04:53:55.106Z,5.32
2022-07-29T04:56:21.951Z,5.28
2022-07-29T04:58:48.865Z,5.10
2022-07-29T05:01:15.947Z,5.05
2022-07-29T05:03:42.938Z,5.95
2022-07-29T05:06:09.781Z,5.55
2022-07-29T05:08:36.696Z,5.78
2022-07-29T05:11:12.230Z,5.05
2022-07-29T05:13:45.939Z,5.00
2022-07-29T05:16:14.865Z,5.38
2022-07-29T05:18:42.320Z,5.20
2022-07-29T05:21:09.045Z,5.78
2022-07-29T05:23:35.853Z,5.57
2022-07-29T05:26:02.711Z,4.40
2022-07-29T05:28:29.498Z,4.60
2022-07-29T05:30:57.265Z,5.05
2022-07-29T05:33:35.346Z,4.65
2022-07-29T05:36:08.186Z,5.22
2022-07-29T05:38:36.771Z,4.70
2022-07-29T05:41:04.375Z,4.88
2022-07-29T05:43:31.381Z,4.88
2022-07-29T05:45:58.269Z,4.88
2022-07-29T05:48:25.653Z,4.43
2022-07-29T05:50:52.487Z,4.60
2022-07-29T05:53:20.522Z,4.10
2022-07-29T05:55:48.771Z,4.65
2022-07-29T05:58:15.695Z,4.97
2022-07-29T06:00:42.986Z,4.15
2022-07-29T06:03:09.718Z,4.38
2022-07-29T06:05:36.529Z,4.53
2022-07-29T06:08:03.640Z,4.43
2022-07-29T06:10:30.975Z,4.45
2022-07-29T06:12:57.712Z,4.40
2022-07-29T06:15:24.455Z,3.70
2022-07-29T06:18:00.078Z,4.47
2022-07-29T06:20:32.252Z,5.10
2022-07-29T06:23:00.448Z,4.53
2022-07-29T06:25:30.089Z,5.00
2022-07-29T06:27:57.655Z,4.22
2022-07-29T06:30:24.809Z,4.63
2022-07-29T06:32:51.624Z,4.57
2022-07-29T06:35:41.053Z,5.22
2022-07-29T06:38:07.312Z,4.65
2022-07-29T06:41:02.167Z,5.10
2022-07-29T06:43:34.590Z,4.53
2022-07-29T06:46:03.882Z,4.40
2022-07-29T06:48:30.845Z,4.70
2022-07-29T06:50:59.042Z,4.35
2022-07-29T06:53:26.523Z,4.93
2022-07-29T06:55:53.739Z,5.00
2022-07-29T06:58:21.512Z,4.78
2022-07-29T07:00:58.635Z,5.28
2022-07-29T07:03:25.765Z,4.70
2022-07-29T07:05:54.974Z,5.20
2022-07-29T07:08:22.961Z,4.30
2022-07-29T07:10:50.210Z,4.78
2022-07-29T07:13:18.160Z,4.88
2022-07-29T07:15:46.287Z,4.93
2022-07-29T07:18:13.271Z,5.38
2022-07-29T07:20:40.089Z,4.30
2022-07-29T07:23:06.998Z,4.60
2022-07-29T07:25:33.936Z,5.00
2022-07-29T07:28:00.954Z,5.30
2022-07-29T07:30:28.284Z,5.10
2022-07-29T07:32:56.368Z,6.60
2022-07-29T07:35:23.338Z,5.50
2022-07-29T07:37:50.430Z,5.45
2022-07-29T07:40:18.590Z,5.22
2022-07-29T07:42:45.916Z,5.22
2022-07-29T07:45:15.943Z,5.55
2022-07-29T07:47:43.301Z,4.93
2022-07-29T07:50:18.049Z,5.38
2022-07-29T07:52:53.677Z,5.93
2022-07-29T07:55:20.470Z,6.10
2022-07-29T07:57:48.930Z,5.20
2022-07-29T08:00:17.455Z,4.78
2022-07-29T08:02:45.910Z,5.38
2022-07-29T08:05:17.593Z,5.00
2022-07-29T08:07:48.433Z,5.95
2022-07-29T08:10:37.616Z,5.80
2022-07-29T08:13:08.613Z,4.78
2022-07-29T08:15:36.078Z,5.05
2022-07-29T08:18:08.351Z,5.45
2022-07-29T08:20:37.492Z,5.38
2022-07-29T08:23:06.912Z,6.10
2022-07-29T08:25:34.702Z,5.03
2022-07-29T08:28:06.432Z,4.75
2022-07-29T08:30:33.370Z,5.20
2022-07-29T08:33:00.340Z,4.80
2022-07-29T08:35:32.073Z,5.47
2022-07-29T08:38:00.261Z,4.82
2022-07-29T08:40:30.537Z,4.85
2022-07-29T08:42:59.268Z,5.25
2022-07-29T08:45:27.681Z,4.68
2022-07-29T08:47:54.503Z,4.50
2022-07-29T08:50:21.648Z,5.13
2022-07-29T08:52:51.208Z,4.63
2022-07-29T08:55:21.312Z,4.88
2022-07-29T08:57:51.995Z,4.45
2022-07-29T09:00:23.232Z,4.00
2022-07-29T09:02:56.538Z,4.05
2022-07-29T09:05:25.770Z,4.63
2022-07-29T09:07:53.065Z,4.50
2022-07-29T09:10:19.978Z,3.90
2022-07-29T09:12:47.408Z,4.30
2022-07-29T09:15:14.175Z,4.65
2022-07-29T09:17:42.759Z,4.60
2022-07-29T09:20:12.438Z,4.35
2022-07-29T09:22:42.043Z,4.25
2022-07-29T09:25:09.842Z,4.03
2022-07-29T09:27:36.959Z,4.70
2022-07-29T09:30:11.869Z,5.07
2022-07-29T09:33:01.800Z,4.30
2022-07-29T09:35:30.986Z,5.00
2022-07-29T09:37:58.608Z,5.03
2022-07-29T09:40:28.717Z,5.20
2022-07-29T09:42:59.262Z,4.80
2022-07-29T09:45:31.071Z,4.72
2022-07-29T09:48:01.493Z,4.80
2022-07-29T09:50:39.506Z,4.75
2022-07-29T09:53:07.017Z,4.78
2022-07-29T09:55:33.799Z,4.78
2022-07-29T09:58:21.172Z,5.40
2022-07-29T10:00:50.748Z,5.55
2022-07-29T10:03:17.980Z,5.53
2022-07-29T10:05:45.985Z,4.85
2022-07-29T10:08:13.539Z,4.55
2022-07-29T10:10:42.977Z,4.65
2022-07-29T10:13:15.428Z,4.75
2022-07-29T10:15:46.006Z,4.70
2022-07-29T10:18:15.418Z,4.63
2022-07-29T10:20:42.674Z,4.47
2022-07-29T10:23:10.310Z,4.97
2022-07-29T10:25:37.093Z,4.60
2022-07-29T10:28:04.185Z,5.30
2022-07-29T10:30:32.498Z,4.55
2022-07-29T10:33:17.135Z,4.43
2022-07-29T10:36:16.476Z,4.10
2022-07-29T10:39:22.746Z,4.47
2022-07-29T10:42:33.950Z,4.43
2022-07-29T10:45:02.680Z,5.05
2022-07-29T10:47:32.288Z,4.47
2022-07-29T10:50:01.688Z,4.07
2022-07-29T10:52:58.435Z,4.32
2022-07-29T10:55:45.501Z,4.35
2022-07-29T10:58:15.816Z,4.10
2022-07-29T11:00:45.729Z,3.92
2022-07-29T11:03:50.392Z,3.80
2022-07-29T11:06:18.172Z,4.00
2022-07-29T11:09:16.621Z,4.88
2022-07-29T11:11:44.079Z,4.65
2022-07-29T11:14:19.871Z,3.88
2022-07-29T11:17:06.550Z,4.38
2022-07-29T11:19:33.978Z,3.95
2022-07-29T11:22:03.121Z,4.50
2022-07-29T11:24:35.942Z,4.50
2022-07-29T11:27:08.289Z,3.58
2022-07-29T11:29:40.417Z,3.85
2022-07-29T11:32:23.096Z,3.88
2022-07-29T11:38:28.340Z,3.90
2022-07-29T11:41:23.803Z,4.43
2022-07-29T11:43:55.943Z,3.92
2022-07-29T11:46:51.888Z,4.18
2022-07-29T11:52:13.857Z,4.00
2022-07-29T11:54:58.235Z,3.92
2022-07-29T11:57:36.373Z,4.22
2022-07-29T12:00:12.276Z,3.85
2022-07-29T12:02:48.648Z,3.97
2022-07-29T12:05:22.203Z,4.10
2022-07-29T12:07:51.075Z,4.35
2022-07-29T12:10:29.790Z,4.00
2022-07-29T12:12:57.802Z,4.15
2022-07-29T12:15:46.125Z,3.85
2022-07-29T12:18:16.083Z,3.78
2022-07-29T12:20:46.479Z,4.72
2022-07-29T12:23:14.513Z,4.03
2022-07-29T12:25:44.489Z,3.95
2022-07-29T12:28:26.891Z,4.57
2022-07-29T12:30:54.565Z,3.60
2022-07-29T12:33:27.580Z,4.38
2022-07-29T12:36:06.999Z,3.58
2022-07-29T12:38:35.974Z,3.93
2022-07-29T12:41:04.512Z,4.03
2022-07-29T12:43:32.168Z,3.33
2022-07-29T12:46:12.136Z,3.58
2022-07-29T12:48:41.612Z,4.15
2022-07-29T12:51:09.806Z,3.50
2022-07-29T12:53:37.929Z,3.38
2022-07-29T12:56:20.670Z,3.60
2022-07-29T12:58:52.831Z,3.67
2022-07-29T13:01:21.957Z,4.05
2022-07-29T13:03:59.794Z,3.40
2022-07-29T13:06:29.451Z,3.50
2022-07-29T13:09:08.385Z,3.42
2022-07-29T13:11:36.760Z,3.95
2022-07-29T13:14:06.737Z,4.13
2022-07-29T13:16:34.322Z,3.75
2022-07-29T13:19:10.159Z,3.97
2022-07-29T13:21:37.698Z,3.50
2022-07-29T13:24:08.897Z,3.45
2022-07-29T13:26:37.853Z,3.47
2022-07-29T13:29:07.772Z,3.88
2022-07-29T13:31:34.744Z,3.78
2022-07-29T13:34:01.549Z,3.60
2022-07-29T13:36:28.576Z,3.30
2022-07-29T13:38:55.755Z,3.42
2022-07-29T13:41:22.553Z,3.50
2022-07-29T13:43:52.688Z,2.97
2022-07-29T13:46:20.267Z,3.10
2022-07-29T13:48:47.323Z,3.38
2022-07-29T13:51:14.212Z,3.58
2022-07-29T13:53:40.998Z,3.20
2022-07-29T13:56:08.069Z,3.05
2022-07-29T13:58:36.093Z,3.38
2022-07-29T14:01:03.118Z,3.65
2022-07-29T14:03:30.110Z,3.03
2022-07-29T14:05:57.346Z,2.92
2022-07-29T14:08:24.161Z,2.63
2022-07-29T14:10:51.307Z,2.70
2022-07-29T14:13:24.955Z,2.67
2022-07-29T14:15:52.724Z,2.58
2022-07-29T14:18:19.435Z,2.72
2022-07-29T14:20:46.579Z,2.40
2022-07-29T14:23:13.495Z,2.63
2022-07-29T14:25:43.041Z,2.40
2022-07-29T14:28:11.443Z,2.53
2022-07-29T14:30:38.394Z,2.35
2022-07-29T14:33:05.527Z,2.50
2022-07-29T14:35:32.312Z,2.25
2022-07-29T14:37:59.356Z,2.10
2022-07-29T14:40:26.687Z,2.28
2022-07-29T14:42:53.581Z,1.80
2022-07-29T14:45:20.521Z,2.13
2022-07-29T14:47:47.857Z,1.67
2022-07-29T14:50:15.116Z,2.00
2022-07-29T14:52:41.992Z,1.95
2022-07-29T14:55:16.395Z,1.77
2022-07-29T14:57:45.283Z,2.20
2022-07-29T15:00:13.904Z,1.90
2022-07-29T15:03:00.970Z,1.70
2022-07-29T15:05:28.335Z,1.80
2022-07-29T15:07:55.261Z,1.48
2022-07-29T15:10:22.101Z,2.03
2022-07-29T15:12:51.644Z,1.90
2022-07-29T15:15:18.662Z,1.98
2022-07-29T15:17:46.626Z,1.83
2022-07-29T15:20:13.709Z,1.90
2022-07-29T15:22:42.167Z,2.20
2022-07-29T15:25:10.957Z,2.08
2022-07-29T15:27:37.801Z,1.63
2022-07-29T15:30:05.434Z,1.90
2022-07-29T15:32:32.173Z,1.70
2022-07-29T15:34:59.089Z,2.13
2022-07-29T15:37:25.930Z,1.50
2022-07-29T15:39:55.964Z,1.52
2022-07-29T15:42:25.155Z,1.92
2022-07-29T15:44:52.120Z,2.08
2022-07-29T15:47:18.966Z,1.80
2022-07-29T15:49:48.818Z,2.10
2022-07-29T15:52:19.156Z,1.70
2022-07-29T15:54:52.717Z,2.08
2022-07-29T15:57:19.558Z,1.73
2022-07-29T15:59:46.480Z,1.67
2022-07-29T16:02:13.279Z,1.80
2022-07-29T16:04:40.105Z,1.65
2022-07-29T16:07:07.552Z,1.42
2022-07-29T16:09:34.480Z,1.48
2022-07-29T16:12:01.295Z,1.52
2022-07-29T16:14:28.907Z,1.58
2022-07-29T16:16:56.769Z,1.60
2022-07-29T16:19:23.841Z,1.75
2022-07-29T16:21:50.593Z,1.75
2022-07-29T16:24:18.180Z,1.20
2022-07-29T16:26:45.013Z,1.63
2022-07-29T16:29:12.082Z,1.42
2022-07-29T16:31:39.102Z,1.35
2022-07-29T16:34:06.278Z,1.55
2022-07-29T16:36:33.475Z,1.55
2022-07-29T16:39:00.272Z,1.50
2022-07-29T16:41:27.170Z,1.63
2022-07-29T16:43:55.278Z,1.73
2022-07-29T16:46:22.117Z,1.70
2022-07-29T16:48:51.269Z,1.40
2022-07-29T16:51:18.340Z,1.83
2022-07-29T16:53:45.128Z,1.67
2022-07-29T16:56:12.879Z,1.42
2022-07-29T16:58:43.868Z,1.63
2022-07-29T17:01:11.588Z,1.40
2022-07-29T17:04:01.696Z,1.40
2022-07-29T17:06:29.582Z,1.70
2022-07-29T17:08:56.731Z,1.75
2022-07-29T17:11:52.609Z,1.50
2022-07-29T17:14:11.014Z,1.60
2022-07-29T17:16:37.896Z,1.35
2022-07-29T17:19:05.079Z,1.20
2022-07-29T17:21:31.932Z,1.58
2022-07-29T17:23:59.480Z,1.30
2022-07-29T17:26:28.222Z,1.38
2022-07-29T17:28:55.607Z,1.50
2022-07-29T17:31:23.451Z,1.48
2022-07-29T17:33:50.687Z,1.70
2022-07-29T17:36:23.886Z,1.40
2022-07-29T17:38:53.023Z,1.52
2022-07-29T17:41:20.487Z,1.38
2022-07-29T17:43:47.833Z,1.33
2022-07-29T17:46:15.168Z,1.40
2022-07-29T17:48:42.095Z,1.83
2022-07-29T17:51:09.471Z,1.50
2022-07-29T17:53:36.911Z,1.50
2022-07-29T17:56:05.013Z,1.30
2022-07-29T17:58:32.851Z,1.60
2022-07-29T18:00:59.899Z,1.10
2022-07-29T18:03:27.246Z,1.60
2022-07-29T18:05:54.151Z,1.48
2022-07-29T18:08:20.924Z,1.38
2022-07-29T18:10:47.747Z,1.38
2022-07-29T18:13:14.557Z,1.20
2022-07-29T18:15:42.196Z,1.40
2022-07-29T18:18:09.414Z,1.95
2022-07-29T18:20:36.172Z,1.27
2022-07-29T18:23:03.134Z,1.40
2022-07-29T18:25:30.100Z,1.52
2022-07-29T18:28:00.274Z,1.10
2022-07-29T18:30:28.504Z,1.20
2022-07-29T18:33:19.859Z,1.30
2022-07-29T18:35:42.692Z,1.80
2022-07-29T18:38:09.677Z,1.05
2022-07-29T18:40:38.650Z,1.55
2022-07-29T18:43:07.201Z,1.42
2022-07-29T18:45:34.853Z,1.48
2022-07-29T18:48:02.540Z,1.65
2022-07-29T18:50:30.225Z,2.00
2022-07-29T18:52:58.793Z,2.22
2022-07-29T18:55:27.247Z,2.70
2022-07-29T18:57:56.555Z,2.65
2022-07-29T19:00:25.614Z,2.97
2022-07-29T19:02:53.170Z,2.80
2022-07-29T19:05:20.687Z,2.78
2022-07-29T19:07:47.587Z,2.75
2022-07-29T19:10:14.782Z,2.88
2022-07-29T19:12:41.606Z,2.65
2022-07-29T19:15:10.438Z,2.35
2022-07-29T19:17:37.890Z,2.78
2022-07-29T19:20:06.023Z,2.60
2022-07-29T19:22:34.345Z,2.88
2022-07-29T19:25:01.819Z,2.70
2022-07-29T19:27:28.596Z,2.67
2022-07-29T19:29:59.027Z,2.80
2022-07-29T19:32:26.592Z,2.58
2022-07-29T19:35:12.105Z,2.85
2022-07-29T19:37:38.890Z,2.20
2022-07-29T19:40:06.661Z,2.47
2022-07-29T19:42:33.891Z,2.70
2022-07-29T19:45:01.108Z,3.00
2022-07-29T19:47:27.945Z,2.65
2022-07-29T19:49:54.855Z,2.45
2022-07-29T19:52:21.914Z,3.17
2022-07-29T19:54:49.534Z,2.60
2022-07-29T19:57:16.324Z,2.78
2022-07-29T19:59:43.044Z,2.75
2022-07-29T20:02:12.214Z,2.88
2022-07-29T20:04:39.595Z,2.70
2022-07-29T20:07:08.672Z,2.60
2022-07-29T20:09:36.123Z,2.65
2022-07-29T20:12:04.707Z,2.83
2022-07-29T20:14:32.648Z,2.72
2022-07-29T20:17:00.539Z,2.35
2022-07-29T20:19:28.110Z,2.50
2022-07-29T20:21:54.918Z,2.40
2022-07-29T20:24:22.110Z,2.72
2022-07-29T20:26:49.609Z,2.30
2022-07-29T20:29:16.913Z,2.55
2022-07-29T20:31:43.880Z,2.30
2022-07-29T20:34:11.092Z,2.42
2022-07-29T20:36:37.822Z,2.70
2022-07-29T20:39:04.969Z,2.42
2022-07-29T20:41:33.842Z,2.22
2022-07-29T20:44:02.068Z,2.45
2022-07-29T20:46:29.226Z,2.33
2022-07-29T20:48:56.510Z,2.97
2022-07-29T20:51:23.650Z,2.10
2022-07-29T20:53:50.499Z,2.33
2022-07-29T20:56:17.613Z,2.67
2022-07-29T20:58:44.348Z,2.10
2022-07-29T21:01:11.195Z,2.55
2022-07-29T21:03:38.163Z,2.00
2022-07-29T21:06:05.014Z,2.08
2022-07-29T21:08:32.035Z,2.22
2022-07-29T21:10:59.265Z,2.05
2022-07-29T21:13:26.136Z,2.10
2022-07-29T21:15:57.620Z,2.17
2022-07-29T21:18:27.916Z,2.40
2022-07-29T21:20:55.596Z,2.35
2022-07-29T21:23:23.779Z,2.08
2022-07-29T21:25:51.518Z,2.75
2022-07-29T21:28:27.821Z,2.75
2022-07-29T21:30:59.809Z,2.88
2022-07-29T21:33:28.640Z,2.63
2022-07-29T21:36:46.144Z,2.58
2022-07-29T21:38:42.941Z,2.35
2022-07-29T21:41:12.412Z,2.50
2022-07-29T21:43:42.471Z,2.42
2022-07-29T21:46:09.757Z,2.20
2022-07-29T21:48:39.117Z,2.92
2022-07-29T21:51:08.734Z,2.58
2022-07-29T21:53:35.829Z,2.63
2022-07-29T21:56:03.134Z,2.63
2022-07-29T21:58:33.460Z,2.70
2022-07-29T22:01:00.598Z,2.30
2022-07-29T22:03:27.398Z,2.65
2022-07-29T22:05:54.234Z,2.53
2022-07-29T22:08:21.347Z,2.40
2022-07-29T22:10:48.145Z,2.25
2022-07-29T22:13:14.948Z,2.67
2022-07-29T22:15:46.683Z,2.20
2022-07-29T22:18:19.497Z,2.50
2022-07-29T22:20:49.152Z,2.50
2022-07-29T22:23:16.157Z,2.53
2022-07-29T22:25:43.218Z,2.38
2022-07-29T22:28:10.023Z,2.45
2022-07-29T22:30:36.942Z,2.67
2022-07-29T22:33:03.795Z,2.63
2022-07-29T22:35:30.798Z,2.45
2022-07-29T22:37:57.607Z,2.20
2022-07-29T22:40:30.675Z,2.40
2022-07-29T22:42:57.804Z,2.17
2022-07-29T22:45:24.573Z,2.55
2022-07-29T22:47:57.502Z,2.78
2022-07-29T22:50:26.368Z,2.53
2022-07-29T22:52:53.184Z,2.70
2022-07-29T22:55:19.998Z,2.65
2022-07-29T22:57:46.835Z,2.95
2022-07-29T23:00:15.003Z,3.00
2022-07-29T23:02:42.127Z,3.35
2022-07-29T23:05:09.608Z,2.80
2022-07-29T23:07:36.555Z,2.50
2022-07-29T23:10:04.330Z,2.97
2022-07-29T23:12:31.080Z,2.97
2022-07-29T23:14:57.902Z,2.70
2022-07-29T23:17:24.708Z,2.80
2022-07-29T23:19:51.534Z,2.80
2022-07-29T23:22:18.586Z,2.63
2022-07-29T23:24:45.636Z,2.50
2022-07-29T23:27:12.379Z,3.05
2022-07-29T23:29:39.298Z,2.63
2022-07-29T23:32:06.954Z,3.17
2022-07-29T23:34:33.695Z,2.80
2022-07-29T23:37:00.785Z,3.10
2022-07-29T23:39:27.973Z,3.40
2022-07-29T23:41:54.895Z,2.95
2022-07-29T23:44:21.797Z,3.20
2022-07-29T23:46:48.622Z,2.88
2022-07-29T23:49:15.821Z,2.85
2022-07-29T23:51:42.665Z,2.92
2022-07-29T23:54:09.473Z,3.60
2022-07-29T23:56:36.248Z,3.60
2022-07-29T23:59:05.745Z,3.13
